sensor_id;sensor_type;location;lat;lon;timestamp;P1;durP1;ratioP1;P2;durP2;ratioP2
4738;SDS011;2383;48.632;10.156;2023-06-26T00:02:44;8.25;;;7.28;;
4738;SDS011;2383;48.632;10.156;2023-06-26T00:06:47;8.18;;;7.18;;
4738;SDS011;2383;48.632;10.156;2023-06-26T00:10:49;12.30;;;7.90;;
4738;SDS011;2383;48.632;10.156;2023-06-26T00:14:52;8.95;;;7.63;;
4738;SDS011;2383;48.632;10.156;2023-06-26T00:18:54;8.65;;;7.45;;
4738;SDS011;2383;48.632;10.156;2023-06-26T00:22:56;8.80;;;7.10;;
4738;SDS011;2383;48.632;10.156;2023-06-26T00:27:00;9.65;;;7.47;;
4738;SDS011;2383;48.632;10.156;2023-06-26T00:31:02;8.73;;;7.10;;
4738;SDS011;2383;48.632;10.156;2023-06-26T00:35:04;9.10;;;7.35;;
4738;SDS011;2383;48.632;10.156;2023-06-26T00:39:06;10.48;;;7.97;;
4738;SDS011;2383;48.632;10.156;2023-06-26T00:43:09;9.98;;;7.60;;
4738;SDS011;2383;48.632;10.156;2023-06-26T00:47:13;8.82;;;7.38;;
4738;SDS011;2383;48.632;10.156;2023-06-26T00:51:17;8.90;;;7.88;;
4738;SDS011;2383;48.632;10.156;2023-06-26T00:55:19;10.40;;;7.78;;
4738;SDS011;2383;48.632;10.156;2023-06-26T00:59:22;9.82;;;7.45;;
4738;SDS011;2383;48.632;10.156;2023-06-26T01:03:24;10.45;;;7.53;;
4738;SDS011;2383;48.632;10.156;2023-06-26T01:07:29;11.55;;;7.78;;
4738;SDS011;2383;48.632;10.156;2023-06-26T01:11:33;8.25;;;7.40;;
4738;SDS011;2383;48.632;10.156;2023-06-26T01:15:35;9.23;;;7.57;;
4738;SDS011;2383;48.632;10.156;2023-06-26T01:19:37;8.95;;;7.55;;
4738;SDS011;2383;48.632;10.156;2023-06-26T01:23:46;8.68;;;6.80;;
4738;SDS011;2383;48.632;10.156;2023-06-26T01:28:07;9.50;;;7.57;;
4738;SDS011;2383;48.632;10.156;2023-06-26T01:32:10;11.25;;;7.93;;
4738;SDS011;2383;48.632;10.156;2023-06-26T01:36:12;8.45;;;6.80;;
4738;SDS011;2383;48.632;10.156;2023-06-26T01:40:15;10.43;;;7.55;;
4738;SDS011;2383;48.632;10.156;2023-06-26T01:44:18;9.70;;;7.95;;
4738;SDS011;2383;48.632;10.156;2023-06-26T01:48:32;9.82;;;7.40;;
4738;SDS011;2383;48.632;10.156;2023-06-26T01:52:43;9.68;;;7.50;;
4738;SDS011;2383;48.632;10.156;2023-06-26T01:56:54;9.77;;;7.43;;
4738;SDS011;2383;48.632;10.156;2023-06-26T02:00:59;8.70;;;7.57;;
4738;SDS011;2383;48.632;10.156;2023-06-26T02:05:01;11.50;;;8.00;;
4738;SDS011;2383;48.632;10.156;2023-06-26T02:09:03;9.93;;;8.40;;
4738;SDS011;2383;48.632;10.156;2023-06-26T02:13:05;10.05;;;8.45;;
4738;SDS011;2383;48.632;10.156;2023-06-26T02:17:07;9.40;;;7.63;;
4738;SDS011;2383;48.632;10.156;2023-06-26T02:21:10;11.07;;;8.70;;
4738;SDS011;2383;48.632;10.156;2023-06-26T02:25:13;9.25;;;8.00;;
4738;SDS011;2383;48.632;10.156;2023-06-26T02:29:15;8.95;;;7.45;;
4738;SDS011;2383;48.632;10.156;2023-06-26T02:33:17;9.77;;;8.15;;
4738;SDS011;2383;48.632;10.156;2023-06-26T02:37:22;10.23;;;7.28;;
4738;SDS011;2383;48.632;10.156;2023-06-26T02:41:24;9.75;;;7.75;;
4738;SDS011;2383;48.632;10.156;2023-06-26T02:45:26;10.82;;;8.57;;
4738;SDS011;2383;48.632;10.156;2023-06-26T02:49:29;10.88;;;8.48;;
4738;SDS011;2383;48.632;10.156;2023-06-26T02:53:31;9.30;;;7.03;;
4738;SDS011;2383;48.632;10.156;2023-06-26T02:57:33;9.10;;;7.40;;
4738;SDS011;2383;48.632;10.156;2023-06-26T03:01:35;11.98;;;7.82;;
4738;SDS011;2383;48.632;10.156;2023-06-26T03:05:38;9.52;;;7.25;;
4738;SDS011;2383;48.632;10.156;2023-06-26T03:09:40;9.68;;;8.05;;
4738;SDS011;2383;48.632;10.156;2023-06-26T03:13:42;10.93;;;8.43;;
4738;SDS011;2383;48.632;10.156;2023-06-26T03:17:44;11.63;;;8.38;;
4738;SDS011;2383;48.632;10.156;2023-06-26T03:21:52;10.38;;;7.65;;
4738;SDS011;2383;48.632;10.156;2023-06-26T03:25:54;10.35;;;8.05;;
4738;SDS011;2383;48.632;10.156;2023-06-26T03:30:03;10.43;;;7.82;;
4738;SDS011;2383;48.632;10.156;2023-06-26T03:34:05;10.20;;;8.10;;
4738;SDS011;2383;48.632;10.156;2023-06-26T03:38:07;8.85;;;7.65;;
4738;SDS011;2383;48.632;10.156;2023-06-26T03:42:10;13.20;;;8.00;;
4738;SDS011;2383;48.632;10.156;2023-06-26T03:46:12;11.48;;;8.77;;
4738;SDS011;2383;48.632;10.156;2023-06-26T03:50:15;16.02;;;8.70;;
4738;SDS011;2383;48.632;10.156;2023-06-26T03:54:17;10.70;;;8.38;;
4738;SDS011;2383;48.632;10.156;2023-06-26T03:58:19;12.77;;;8.30;;
4738;SDS011;2383;48.632;10.156;2023-06-26T04:02:21;10.77;;;8.00;;
4738;SDS011;2383;48.632;10.156;2023-06-26T04:06:24;13.20;;;8.00;;
4738;SDS011;2383;48.632;10.156;2023-06-26T04:10:27;11.73;;;8.05;;
4738;SDS011;2383;48.632;10.156;2023-06-26T04:14:29;9.05;;;7.60;;
4738;SDS011;2383;48.632;10.156;2023-06-26T04:18:31;10.20;;;8.15;;
4738;SDS011;2383;48.632;10.156;2023-06-26T04:22:33;12.85;;;9.10;;
4738;SDS011;2383;48.632;10.156;2023-06-26T04:26:35;10.70;;;8.50;;
4738;SDS011;2383;48.632;10.156;2023-06-26T04:30:38;11.40;;;8.45;;
4738;SDS011;2383;48.632;10.156;2023-06-26T04:34:40;11.13;;;8.27;;
4738;SDS011;2383;48.632;10.156;2023-06-26T04:38:45;11.25;;;8.50;;
4738;SDS011;2383;48.632;10.156;2023-06-26T04:42:49;12.52;;;9.25;;
4738;SDS011;2383;48.632;10.156;2023-06-26T04:46:51;12.02;;;8.50;;
4738;SDS011;2383;48.632;10.156;2023-06-26T04:50:54;12.70;;;9.05;;
4738;SDS011;2383;48.632;10.156;2023-06-26T04:54:57;12.63;;;8.55;;
4738;SDS011;2383;48.632;10.156;2023-06-26T04:58:59;10.95;;;9.30;;
4738;SDS011;2383;48.632;10.156;2023-06-26T05:03:01;10.88;;;9.07;;
4738;SDS011;2383;48.632;10.156;2023-06-26T05:07:03;14.35;;;9.93;;
4738;SDS011;2383;48.632;10.156;2023-06-26T05:11:06;14.27;;;10.20;;
4738;SDS011;2383;48.632;10.156;2023-06-26T05:15:08;13.20;;;9.55;;
4738;SDS011;2383;48.632;10.156;2023-06-26T05:19:10;14.55;;;9.48;;
4738;SDS011;2383;48.632;10.156;2023-06-26T05:23:12;13.00;;;9.07;;
4738;SDS011;2383;48.632;10.156;2023-06-26T05:27:15;12.27;;;9.32;;
4738;SDS011;2383;48.632;10.156;2023-06-26T05:31:23;19.55;;;10.00;;
4738;SDS011;2383;48.632;10.156;2023-06-26T05:35:25;14.27;;;9.98;;
4738;SDS011;2383;48.632;10.156;2023-06-26T05:39:31;14.98;;;9.80;;
4738;SDS011;2383;48.632;10.156;2023-06-26T05:43:33;12.32;;;9.63;;
4738;SDS011;2383;48.632;10.156;2023-06-26T05:47:36;12.70;;;9.55;;
4738;SDS011;2383;48.632;10.156;2023-06-26T05:51:38;13.18;;;9.75;;
4738;SDS011;2383;48.632;10.156;2023-06-26T05:55:40;12.05;;;9.70;;
4738;SDS011;2383;48.632;10.156;2023-06-26T05:59:44;15.30;;;9.77;;
4738;SDS011;2383;48.632;10.156;2023-06-26T06:03:47;14.82;;;9.68;;
4738;SDS011;2383;48.632;10.156;2023-06-26T06:07:50;14.70;;;10.25;;
4738;SDS011;2383;48.632;10.156;2023-06-26T06:11:52;11.73;;;10.38;;
4738;SDS011;2383;48.632;10.156;2023-06-26T06:15:54;12.15;;;9.65;;
4738;SDS011;2383;48.632;10.156;2023-06-26T06:19:57;12.98;;;9.57;;
4738;SDS011;2383;48.632;10.156;2023-06-26T06:23:59;14.55;;;11.57;;
4738;SDS011;2383;48.632;10.156;2023-06-26T06:28:03;13.15;;;10.35;;
4738;SDS011;2383;48.632;10.156;2023-06-26T06:32:06;12.80;;;9.93;;
4738;SDS011;2383;48.632;10.156;2023-06-26T06:36:08;14.77;;;10.40;;
4738;SDS011;2383;48.632;10.156;2023-06-26T06:40:10;13.00;;;9.73;;
4738;SDS011;2383;48.632;10.156;2023-06-26T06:44:13;12.18;;;9.50;;
4738;SDS011;2383;48.632;10.156;2023-06-26T06:48:15;12.93;;;9.48;;
4738;SDS011;2383;48.632;10.156;2023-06-26T06:52:17;11.30;;;10.02;;
4738;SDS011;2383;48.632;10.156;2023-06-26T06:56:19;12.13;;;9.43;;
4738;SDS011;2383;48.632;10.156;2023-06-26T07:00:21;10.75;;;9.00;;
4738;SDS011;2383;48.632;10.156;2023-06-26T07:04:23;11.65;;;8.82;;
4738;SDS011;2383;48.632;10.156;2023-06-26T07:08:26;12.30;;;9.30;;
4738;SDS011;2383;48.632;10.156;2023-06-26T07:12:27;11.57;;;10.07;;
4738;SDS011;2383;48.632;10.156;2023-06-26T07:16:30;13.63;;;8.57;;
4738;SDS011;2383;48.632;10.156;2023-06-26T07:20:32;12.80;;;8.88;;
4738;SDS011;2383;48.632;10.156;2023-06-26T07:24:34;10.55;;;8.93;;
4738;SDS011;2383;48.632;10.156;2023-06-26T07:28:36;11.15;;;8.50;;
4738;SDS011;2383;48.632;10.156;2023-06-26T07:32:38;10.50;;;8.93;;
4738;SDS011;2383;48.632;10.156;2023-06-26T07:36:42;14.15;;;8.63;;
4738;SDS011;2383;48.632;10.156;2023-06-26T07:40:44;10.40;;;8.63;;
4738;SDS011;2383;48.632;10.156;2023-06-26T07:44:46;10.88;;;8.85;;
4738;SDS011;2383;48.632;10.156;2023-06-26T07:48:48;10.95;;;8.25;;
4738;SDS011;2383;48.632;10.156;2023-06-26T07:52:50;11.63;;;9.07;;
4738;SDS011;2383;48.632;10.156;2023-06-26T07:56:58;12.85;;;8.27;;
4738;SDS011;2383;48.632;10.156;2023-06-26T08:01:04;11.45;;;8.90;;
4738;SDS011;2383;48.632;10.156;2023-06-26T08:05:06;10.32;;;8.40;;
4738;SDS011;2383;48.632;10.156;2023-06-26T08:09:10;12.88;;;8.45;;
4738;SDS011;2383;48.632;10.156;2023-06-26T08:13:14;9.75;;;8.23;;
4738;SDS011;2383;48.632;10.156;2023-06-26T08:17:15;9.50;;;8.10;;
4738;SDS011;2383;48.632;10.156;2023-06-26T08:21:18;10.35;;;8.07;;
4738;SDS011;2383;48.632;10.156;2023-06-26T08:25:20;8.50;;;7.53;;
4738;SDS011;2383;48.632;10.156;2023-06-26T08:29:22;12.25;;;8.32;;
4738;SDS011;2383;48.632;10.156;2023-06-26T08:33:24;10.05;;;7.65;;
4738;SDS011;2383;48.632;10.156;2023-06-26T08:37:26;10.32;;;8.40;;
4738;SDS011;2383;48.632;10.156;2023-06-26T08:41:28;9.10;;;8.15;;
4738;SDS011;2383;48.632;10.156;2023-06-26T08:45:30;8.70;;;7.03;;
4738;SDS011;2383;48.632;10.156;2023-06-26T08:53:58;9.82;;;7.95;;
4738;SDS011;2383;48.632;10.156;2023-06-26T08:58:02;8.52;;;6.57;;
4738;SDS011;2383;48.632;10.156;2023-06-26T09:02:04;7.00;;;4.95;;
4738;SDS011;2383;48.632;10.156;2023-06-26T09:06:07;6.88;;;5.18;;
4738;SDS011;2383;48.632;10.156;2023-06-26T09:10:09;5.60;;;4.95;;
4738;SDS011;2383;48.632;10.156;2023-06-26T09:14:11;5.45;;;4.90;;
4738;SDS011;2383;48.632;10.156;2023-06-26T09:18:16;5.53;;;4.90;;
4738;SDS011;2383;48.632;10.156;2023-06-26T09:22:20;9.68;;;5.07;;
4738;SDS011;2383;48.632;10.156;2023-06-26T09:26:24;5.10;;;4.60;;
4738;SDS011;2383;48.632;10.156;2023-06-26T09:30:26;7.10;;;5.63;;
4738;SDS011;2383;48.632;10.156;2023-06-26T09:34:35;6.57;;;4.90;;
4738;SDS011;2383;48.632;10.156;2023-06-26T09:38:37;5.53;;;5.03;;
4738;SDS011;2383;48.632;10.156;2023-06-26T09:42:39;6.00;;;5.03;;
4738;SDS011;2383;48.632;10.156;2023-06-26T09:46:44;5.65;;;4.90;;
4738;SDS011;2383;48.632;10.156;2023-06-26T09:50:48;6.28;;;5.38;;
4738;SDS011;2383;48.632;10.156;2023-06-26T09:55:10;5.57;;;4.95;;
4738;SDS011;2383;48.632;10.156;2023-06-26T09:59:12;5.18;;;4.70;;
4738;SDS011;2383;48.632;10.156;2023-06-26T10:03:16;6.78;;;5.03;;
4738;SDS011;2383;48.632;10.156;2023-06-26T10:07:19;6.18;;;5.05;;
4738;SDS011;2383;48.632;10.156;2023-06-26T10:11:24;5.75;;;5.20;;
4738;SDS011;2383;48.632;10.156;2023-06-26T10:15:30;6.10;;;4.90;;
4738;SDS011;2383;48.632;10.156;2023-06-26T10:19:33;5.53;;;4.55;;
4738;SDS011;2383;48.632;10.156;2023-06-26T10:23:36;5.63;;;5.00;;
4738;SDS011;2383;48.632;10.156;2023-06-26T10:27:42;6.28;;;5.38;;
4738;SDS011;2383;48.632;10.156;2023-06-26T10:31:49;5.78;;;5.10;;
4738;SDS011;2383;48.632;10.156;2023-06-26T10:35:54;5.70;;;4.93;;
4738;SDS011;2383;48.632;10.156;2023-06-26T10:40:21;5.68;;;5.07;;
4738;SDS011;2383;48.632;10.156;2023-06-26T10:44:26;7.85;;;5.82;;
4738;SDS011;2383;48.632;10.156;2023-06-26T10:48:28;5.75;;;5.15;;
4738;SDS011;2383;48.632;10.156;2023-06-26T10:52:32;6.63;;;5.75;;
4738;SDS011;2383;48.632;10.156;2023-06-26T10:56:47;8.05;;;5.60;;
4738;SDS011;2383;48.632;10.156;2023-06-26T11:00:50;6.43;;;5.78;;
4738;SDS011;2383;48.632;10.156;2023-06-26T11:04:53;7.35;;;5.80;;
4738;SDS011;2383;48.632;10.156;2023-06-26T11:13:09;6.18;;;5.50;;
4738;SDS011;2383;48.632;10.156;2023-06-26T11:17:12;7.60;;;5.78;;
4738;SDS011;2383;48.632;10.156;2023-06-26T11:21:16;9.40;;;5.80;;
4738;SDS011;2383;48.632;10.156;2023-06-26T11:25:22;7.60;;;5.47;;
4738;SDS011;2383;48.632;10.156;2023-06-26T11:29:25;9.13;;;6.00;;
4738;SDS011;2383;48.632;10.156;2023-06-26T11:33:27;6.45;;;5.80;;
4738;SDS011;2383;48.632;10.156;2023-06-26T11:37:29;10.05;;;6.10;;
4738;SDS011;2383;48.632;10.156;2023-06-26T11:41:33;7.15;;;5.97;;
4738;SDS011;2383;48.632;10.156;2023-06-26T11:45:36;10.30;;;6.57;;
4738;SDS011;2383;48.632;10.156;2023-06-26T11:49:41;7.72;;;6.63;;
4738;SDS011;2383;48.632;10.156;2023-06-26T11:53:48;9.15;;;7.03;;
4738;SDS011;2383;48.632;10.156;2023-06-26T11:57:54;6.75;;;6.10;;
4738;SDS011;2383;48.632;10.156;2023-06-26T12:01:58;6.68;;;5.97;;
4738;SDS011;2383;48.632;10.156;2023-06-26T12:06:00;9.55;;;6.15;;
4738;SDS011;2383;48.632;10.156;2023-06-26T12:10:04;9.27;;;6.43;;
4738;SDS011;2383;48.632;10.156;2023-06-26T12:14:07;8.15;;;6.32;;
4738;SDS011;2383;48.632;10.156;2023-06-26T12:18:11;7.82;;;6.20;;
4738;SDS011;2383;48.632;10.156;2023-06-26T12:22:13;8.38;;;6.47;;
4738;SDS011;2383;48.632;10.156;2023-06-26T12:26:16;10.93;;;6.93;;
4738;SDS011;2383;48.632;10.156;2023-06-26T12:30:19;7.47;;;6.78;;
4738;SDS011;2383;48.632;10.156;2023-06-26T12:34:27;10.38;;;6.07;;
4738;SDS011;2383;48.632;10.156;2023-06-26T12:38:32;7.70;;;5.85;;
4738;SDS011;2383;48.632;10.156;2023-06-26T12:42:35;9.00;;;5.47;;
4738;SDS011;2383;48.632;10.156;2023-06-26T12:46:37;6.32;;;5.43;;
4738;SDS011;2383;48.632;10.156;2023-06-26T12:50:45;11.05;;;5.93;;
4738;SDS011;2383;48.632;10.156;2023-06-26T12:54:53;6.25;;;5.65;;
4738;SDS011;2383;48.632;10.156;2023-06-26T12:58:56;7.30;;;5.70;;
4738;SDS011;2383;48.632;10.156;2023-06-26T13:02:58;6.32;;;5.78;;
4738;SDS011;2383;48.632;10.156;2023-06-26T13:07:00;6.60;;;5.95;;
4738;SDS011;2383;48.632;10.156;2023-06-26T13:11:02;11.50;;;6.00;;
4738;SDS011;2383;48.632;10.156;2023-06-26T13:15:04;8.63;;;5.93;;
4738;SDS011;2383;48.632;10.156;2023-06-26T13:19:07;10.13;;;5.78;;
4738;SDS011;2383;48.632;10.156;2023-06-26T13:23:09;10.02;;;6.20;;
4738;SDS011;2383;48.632;10.156;2023-06-26T13:27:11;10.10;;;6.47;;
4738;SDS011;2383;48.632;10.156;2023-06-26T13:31:13;11.65;;;6.18;;
4738;SDS011;2383;48.632;10.156;2023-06-26T13:35:15;9.05;;;6.22;;
4738;SDS011;2383;48.632;10.156;2023-06-26T13:39:17;6.97;;;6.28;;
4738;SDS011;2383;48.632;10.156;2023-06-26T13:43:20;6.55;;;5.93;;
4738;SDS011;2383;48.632;10.156;2023-06-26T13:47:23;7.65;;;6.13;;
4738;SDS011;2383;48.632;10.156;2023-06-26T13:51:26;9.57;;;6.70;;
4738;SDS011;2383;48.632;10.156;2023-06-26T13:55:28;7.60;;;6.32;;
4738;SDS011;2383;48.632;10.156;2023-06-26T13:59:30;7.80;;;7.00;;
4738;SDS011;2383;48.632;10.156;2023-06-26T14:03:32;9.57;;;6.93;;
4738;SDS011;2383;48.632;10.156;2023-06-26T14:07:34;7.10;;;6.40;;
4738;SDS011;2383;48.632;10.156;2023-06-26T14:11:36;9.15;;;7.55;;
4738;SDS011;2383;48.632;10.156;2023-06-26T14:15:38;10.48;;;6.70;;
4738;SDS011;2383;48.632;10.156;2023-06-26T14:19:41;7.88;;;6.43;;
4738;SDS011;2383;48.632;10.156;2023-06-26T14:23:43;10.57;;;7.05;;
4738;SDS011;2383;48.632;10.156;2023-06-26T14:27:46;9.93;;;6.80;;
4738;SDS011;2383;48.632;10.156;2023-06-26T14:31:47;8.40;;;6.80;;
4738;SDS011;2383;48.632;10.156;2023-06-26T14:35:52;7.72;;;6.78;;
4738;SDS011;2383;48.632;10.156;2023-06-26T14:39:57;7.60;;;6.47;;
4738;SDS011;2383;48.632;10.156;2023-06-26T14:44:00;9.85;;;6.60;;
4738;SDS011;2383;48.632;10.156;2023-06-26T14:48:03;9.15;;;6.72;;
4738;SDS011;2383;48.632;10.156;2023-06-26T14:52:05;8.52;;;6.93;;
4738;SDS011;2383;48.632;10.156;2023-06-26T14:56:07;7.72;;;6.93;;
4738;SDS011;2383;48.632;10.156;2023-06-26T15:00:10;10.35;;;6.97;;
4738;SDS011;2383;48.632;10.156;2023-06-26T15:04:12;10.80;;;6.85;;
4738;SDS011;2383;48.632;10.156;2023-06-26T15:08:14;9.38;;;6.07;;
4738;SDS011;2383;48.632;10.156;2023-06-26T15:12:16;10.57;;;7.07;;
4738;SDS011;2383;48.632;10.156;2023-06-26T15:16:19;9.00;;;6.50;;
4738;SDS011;2383;48.632;10.156;2023-06-26T15:20:22;10.93;;;7.30;;
4738;SDS011;2383;48.632;10.156;2023-06-26T15:24:24;11.73;;;6.25;;
4738;SDS011;2383;48.632;10.156;2023-06-26T15:28:26;7.95;;;6.88;;
4738;SDS011;2383;48.632;10.156;2023-06-26T15:32:28;9.48;;;6.38;;
4738;SDS011;2383;48.632;10.156;2023-06-26T15:36:30;9.18;;;6.40;;
4738;SDS011;2383;48.632;10.156;2023-06-26T15:40:32;6.65;;;5.90;;
4738;SDS011;2383;48.632;10.156;2023-06-26T15:44:34;10.45;;;6.45;;
4738;SDS011;2383;48.632;10.156;2023-06-26T15:48:36;9.68;;;6.35;;
4738;SDS011;2383;48.632;10.156;2023-06-26T15:52:42;8.80;;;5.88;;
4738;SDS011;2383;48.632;10.156;2023-06-26T15:56:44;9.02;;;5.45;;
4738;SDS011;2383;48.632;10.156;2023-06-26T16:00:48;7.47;;;5.72;;
4738;SDS011;2383;48.632;10.156;2023-06-26T16:04:50;6.80;;;5.13;;
4738;SDS011;2383;48.632;10.156;2023-06-26T16:08:52;10.77;;;5.45;;
4738;SDS011;2383;48.632;10.156;2023-06-26T16:12:54;8.10;;;4.60;;
4738;SDS011;2383;48.632;10.156;2023-06-26T16:16:56;6.30;;;4.30;;
4738;SDS011;2383;48.632;10.156;2023-06-26T16:20:58;7.65;;;4.63;;
4738;SDS011;2383;48.632;10.156;2023-06-26T16:25:00;6.47;;;3.95;;
4738;SDS011;2383;48.632;10.156;2023-06-26T16:29:02;6.85;;;4.18;;
4738;SDS011;2383;48.632;10.156;2023-06-26T16:33:05;9.00;;;4.10;;
4738;SDS011;2383;48.632;10.156;2023-06-26T16:37:08;5.90;;;3.90;;
4738;SDS011;2383;48.632;10.156;2023-06-26T16:41:10;5.65;;;3.60;;
4738;SDS011;2383;48.632;10.156;2023-06-26T16:45:12;5.03;;;4.07;;
4738;SDS011;2383;48.632;10.156;2023-06-26T16:49:14;4.30;;;3.60;;
4738;SDS011;2383;48.632;10.156;2023-06-26T16:53:16;6.55;;;3.90;;
4738;SDS011;2383;48.632;10.156;2023-06-26T16:57:18;7.00;;;3.83;;
4738;SDS011;2383;48.632;10.156;2023-06-26T17:01:20;5.07;;;3.72;;
4738;SDS011;2383;48.632;10.156;2023-06-26T17:05:22;5.88;;;3.42;;
4738;SDS011;2383;48.632;10.156;2023-06-26T17:09:24;5.43;;;4.28;;
4738;SDS011;2383;48.632;10.156;2023-06-26T17:13:27;5.88;;;3.60;;
4738;SDS011;2383;48.632;10.156;2023-06-26T17:17:29;6.22;;;4.05;;
4738;SDS011;2383;48.632;10.156;2023-06-26T17:21:32;8.23;;;4.45;;
4738;SDS011;2383;48.632;10.156;2023-06-26T17:25:35;9.57;;;4.28;;
4738;SDS011;2383;48.632;10.156;2023-06-26T17:29:37;7.75;;;4.57;;
4738;SDS011;2383;48.632;10.156;2023-06-26T17:33:40;8.95;;;5.80;;
4738;SDS011;2383;48.632;10.156;2023-06-26T17:37:42;7.25;;;5.18;;
4738;SDS011;2383;48.632;10.156;2023-06-26T17:41:45;8.40;;;5.63;;
4738;SDS011;2383;48.632;10.156;2023-06-26T17:45:47;10.18;;;6.00;;
4738;SDS011;2383;48.632;10.156;2023-06-26T17:49:49;8.23;;;5.65;;
4738;SDS011;2383;48.632;10.156;2023-06-26T17:53:52;10.68;;;6.20;;
4738;SDS011;2383;48.632;10.156;2023-06-26T17:57:54;9.90;;;6.15;;
4738;SDS011;2383;48.632;10.156;2023-06-26T18:01:56;10.23;;;5.65;;
4738;SDS011;2383;48.632;10.156;2023-06-26T18:06:00;7.93;;;5.82;;
4738;SDS011;2383;48.632;10.156;2023-06-26T18:10:02;14.18;;;5.82;;
4738;SDS011;2383;48.632;10.156;2023-06-26T18:14:04;7.85;;;5.25;;
4738;SDS011;2383;48.632;10.156;2023-06-26T18:18:06;10.93;;;5.07;;
4738;SDS011;2383;48.632;10.156;2023-06-26T18:22:08;8.57;;;5.22;;
4738;SDS011;2383;48.632;10.156;2023-06-26T18:26:10;6.95;;;5.00;;
4738;SDS011;2383;48.632;10.156;2023-06-26T18:30:13;7.50;;;5.15;;
4738;SDS011;2383;48.632;10.156;2023-06-26T18:34:16;9.18;;;4.75;;
4738;SDS011;2383;48.632;10.156;2023-06-26T18:38:18;8.32;;;4.90;;
4738;SDS011;2383;48.632;10.156;2023-06-26T18:42:19;7.78;;;4.30;;
4738;SDS011;2383;48.632;10.156;2023-06-26T18:46:22;4.55;;;3.60;;
4738;SDS011;2383;48.632;10.156;2023-06-26T18:50:29;5.78;;;3.80;;
4738;SDS011;2383;48.632;10.156;2023-06-26T18:54:31;7.05;;;3.80;;
4738;SDS011;2383;48.632;10.156;2023-06-26T18:58:33;6.00;;;3.33;;
4738;SDS011;2383;48.632;10.156;2023-06-26T19:02:37;4.72;;;2.58;;
4738;SDS011;2383;48.632;10.156;2023-06-26T19:06:39;6.00;;;2.35;;
4738;SDS011;2383;48.632;10.156;2023-06-26T19:10:42;5.78;;;2.22;;
4738;SDS011;2383;48.632;10.156;2023-06-26T19:14:43;3.70;;;2.20;;
4738;SDS011;2383;48.632;10.156;2023-06-26T19:18:46;3.42;;;2.08;;
4738;SDS011;2383;48.632;10.156;2023-06-26T19:22:48;4.85;;;2.25;;
4738;SDS011;2383;48.632;10.156;2023-06-26T19:26:50;4.55;;;1.90;;
4738;SDS011;2383;48.632;10.156;2023-06-26T19:30:53;5.82;;;2.35;;
4738;SDS011;2383;48.632;10.156;2023-06-26T19:34:57;3.95;;;2.15;;
4738;SDS011;2383;48.632;10.156;2023-06-26T19:38:59;6.80;;;2.47;;
4738;SDS011;2383;48.632;10.156;2023-06-26T19:43:04;4.97;;;2.45;;
4738;SDS011;2383;48.632;10.156;2023-06-26T19:47:06;3.92;;;2.15;;
4738;SDS011;2383;48.632;10.156;2023-06-26T19:51:09;3.95;;;2.00;;
4738;SDS011;2383;48.632;10.156;2023-06-26T19:55:11;5.07;;;2.15;;
4738;SDS011;2383;48.632;10.156;2023-06-26T19:59:13;2.97;;;2.08;;
4738;SDS011;2383;48.632;10.156;2023-06-26T20:03:15;4.80;;;1.90;;
4738;SDS011;2383;48.632;10.156;2023-06-26T20:07:17;5.47;;;2.22;;
4738;SDS011;2383;48.632;10.156;2023-06-26T20:11:19;4.93;;;2.08;;
4738;SDS011;2383;48.632;10.156;2023-06-26T20:15:21;4.32;;;2.10;;
4738;SDS011;2383;48.632;10.156;2023-06-26T20:19:23;3.78;;;1.80;;
4738;SDS011;2383;48.632;10.156;2023-06-26T20:23:25;3.20;;;2.22;;
4738;SDS011;2383;48.632;10.156;2023-06-26T20:27:27;13.90;;;7.05;;
4738;SDS011;2383;48.632;10.156;2023-06-26T20:31:29;4.53;;;3.00;;
4738;SDS011;2383;48.632;10.156;2023-06-26T20:35:33;4.32;;;2.10;;
4738;SDS011;2383;48.632;10.156;2023-06-26T20:39:35;4.68;;;2.22;;
4738;SDS011;2383;48.632;10.156;2023-06-26T20:43:37;5.25;;;2.05;;
4738;SDS011;2383;48.632;10.156;2023-06-26T20:47:40;3.40;;;1.90;;
4738;SDS011;2383;48.632;10.156;2023-06-26T20:51:44;5.35;;;1.80;;
4738;SDS011;2383;48.632;10.156;2023-06-26T20:55:46;4.15;;;2.15;;
4738;SDS011;2383;48.632;10.156;2023-06-26T20:59:49;4.45;;;1.92;;
4738;SDS011;2383;48.632;10.156;2023-06-26T21:03:51;2.60;;;1.58;;
4738;SDS011;2383;48.632;10.156;2023-06-26T21:07:53;2.00;;;1.67;;
4738;SDS011;2383;48.632;10.156;2023-06-26T21:11:55;2.97;;;1.73;;
4738;SDS011;2383;48.632;10.156;2023-06-26T21:15:58;3.88;;;1.73;;
4738;SDS011;2383;48.632;10.156;2023-06-26T21:20:00;4.60;;;2.00;;
4738;SDS011;2383;48.632;10.156;2023-06-26T21:24:02;3.47;;;1.70;;
4738;SDS011;2383;48.632;10.156;2023-06-26T21:28:05;4.68;;;1.92;;
4738;SDS011;2383;48.632;10.156;2023-06-26T21:32:07;3.70;;;1.65;;
4738;SDS011;2383;48.632;10.156;2023-06-26T21:36:09;6.90;;;1.58;;
4738;SDS011;2383;48.632;10.156;2023-06-26T21:40:11;3.50;;;1.60;;
4738;SDS011;2383;48.632;10.156;2023-06-26T21:44:14;2.55;;;1.85;;
4738;SDS011;2383;48.632;10.156;2023-06-26T21:48:16;7.63;;;2.15;;
4738;SDS011;2383;48.632;10.156;2023-06-26T21:52:18;3.85;;;1.77;;
4738;SDS011;2383;48.632;10.156;2023-06-26T21:56:20;3.78;;;1.70;;
4738;SDS011;2383;48.632;10.156;2023-06-26T22:00:23;2.15;;;1.50;;
4738;SDS011;2383;48.632;10.156;2023-06-26T22:04:27;3.70;;;1.67;;
4738;SDS011;2383;48.632;10.156;2023-06-26T22:08:29;6.68;;;1.83;;
4738;SDS011;2383;48.632;10.156;2023-06-26T22:12:31;4.32;;;1.60;;
4738;SDS011;2383;48.632;10.156;2023-06-26T22:16:33;3.47;;;1.60;;
4738;SDS011;2383;48.632;10.156;2023-06-26T22:20:35;5.13;;;1.83;;
4738;SDS011;2383;48.632;10.156;2023-06-26T22:24:37;5.82;;;1.67;;
4738;SDS011;2383;48.632;10.156;2023-06-26T22:28:39;4.47;;;1.75;;
4738;SDS011;2383;48.632;10.156;2023-06-26T22:32:42;8.45;;;1.77;;
4738;SDS011;2383;48.632;10.156;2023-06-26T22:36:45;6.05;;;2.10;;
4738;SDS011;2383;48.632;10.156;2023-06-26T22:40:46;3.13;;;1.75;;
4738;SDS011;2383;48.632;10.156;2023-06-26T22:44:48;4.57;;;1.63;;
4738;SDS011;2383;48.632;10.156;2023-06-26T22:48:50;3.20;;;1.90;;
4738;SDS011;2383;48.632;10.156;2023-06-26T22:52:53;5.35;;;1.80;;
4738;SDS011;2383;48.632;10.156;2023-06-26T22:56:55;3.78;;;1.90;;
4738;SDS011;2383;48.632;10.156;2023-06-26T23:00:58;4.38;;;2.25;;
4738;SDS011;2383;48.632;10.156;2023-06-26T23:05:02;3.05;;;1.60;;
4738;SDS011;2383;48.632;10.156;2023-06-26T23:09:05;2.42;;;1.67;;
4738;SDS011;2383;48.632;10.156;2023-06-26T23:13:07;5.65;;;1.92;;
4738;SDS011;2383;48.632;10.156;2023-06-26T23:17:09;4.03;;;1.73;;
4738;SDS011;2383;48.632;10.156;2023-06-26T23:21:12;5.05;;;2.00;;
4738;SDS011;2383;48.632;10.156;2023-06-26T23:25:15;2.83;;;1.77;;
4738;SDS011;2383;48.632;10.156;2023-06-26T23:29:17;4.70;;;2.10;;
4738;SDS011;2383;48.632;10.156;2023-06-26T23:33:19;3.28;;;1.90;;
4738;SDS011;2383;48.632;10.156;2023-06-26T23:37:23;8.07;;;1.92;;
4738;SDS011;2383;48.632;10.156;2023-06-26T23:41:28;3.40;;;2.10;;
4738;SDS011;2383;48.632;10.156;2023-06-26T23:45:30;4.25;;;2.15;;
4738;SDS011;2383;48.632;10.156;2023-06-26T23:49:33;4.65;;;1.95;;
4738;SDS011;2383;48.632;10.156;2023-06-26T23:53:36;6.18;;;1.73;;
4738;SDS011;2383;48.632;10.156;2023-06-26T23:57:40;5.88;;;1.92;;
